This is the latest recevied weather packets stored in our database for station/object LB9CG. If no packets are shown the sender has not sent any weather packets the latest 10 day(s).
| Time | Temp. | Humidity | Pressure | Rain* | Wind** | Luminosity | Snow |
|---|---|---|---|---|---|---|---|
| 1777602617 | 7.22° C | 86% | 1017.7 hPa | 0 mm | - | - | - |
| 1777598417 | 7.78° C | 83% | 1018 hPa | 0 mm | - | - | - |
| 1777594216 | 8.33° C | 81% | 1018.2 hPa | 0 mm | - | - | - |
| 1777593617 | 7.78° C | 80% | 1018.3 hPa | 0 mm | - | - | - |
| 1777593017 | 7.78° C | 80% | 1018.5 hPa | 0 mm | - | - | - |
| 1777585257 | 8.33° C | 76% | 1019.5 hPa | 0 mm | - | - | - |
| 1777584617 | 7.78° C | 76% | 1019.7 hPa | 0 mm | - | - | - |
| 1777584037 | 7.78° C | 77% | 1019.8 hPa | 0 mm | - | - | - |
| 1777579816 | 6.11° C | 77% | 1020.5 hPa | 0 mm | - | - | - |
| 1777578617 | 6.67° C | 80% | 1020.7 hPa | 0 mm | - | - | - |
| 1777576216 | 7.22° C | 79% | 1021 hPa | 0 mm | - | - | - |
| 1777575616 | 7.78° C | 79% | 1021.2 hPa | 0 mm | - | - | - |
| 1777573816 | 8.33° C | 77% | 1021.3 hPa | 0 mm | - | - | - |
| 1777573216 | 8.33° C | 77% | 1021.4 hPa | 0 mm | - | - | - |
| 1777567216 | 9.44° C | 85% | 1022.6 hPa | 0 mm | - | - | - |
| 1777561816 | 8.33° C | 96% | 1023.8 hPa | 0 mm | - | - | - |
| 1777551016 | 7.78° C | 96% | 1024.5 hPa | 0 mm | - | - | - |
| 1777544418 | 7.78° C | 96% | 1024.6 hPa | 0 mm | - | - | - |
| 1777543217 | 7.78° C | 96% | 1024.6 hPa | 0 mm | - | - | - |
| 1777542017 | 7.78° C | 96% | 1024.6 hPa | 0 mm | - | - | - |
| 1777539617 | 8.33° C | 96% | 1024.6 hPa | 0 mm | - | - | - |
| 1777537817 | 7.78° C | 96% | 1024.6 hPa | 0 mm | - | - | - |
| 1777536017 | 7.78° C | 96% | 1024.6 hPa | 0 mm | - | - | - |
| 1777534817 | 7.78° C | 96% | 1024.6 hPa | 0 mm | - | - | - |
| 1777532417 | 7.78° C | 96% | 1024.6 hPa | 0 mm | - | - | - |
* Rain latest hour (hover to see other rain measurements)
** Current wind speed in m/s (hover to see current wind gust speed)